Terminal Aerodrome Forecast
Issued by NWS Bismarck, ND

Home | Current Version | Previous Version | Text Only | Print | Product List | Glossary On
Versions: 1 2 3 4 5 6 7 8 9 10 11 12 13 14 15 16 17 18
000
FTUS43 KBIS 222300
TAFISN
TAF
KISN 222336Z 2300/2324 33012KT P6SM OVC016
     FM230300 32011KT 5SM -SN BR OVC008
     FM231200 32008KT P6SM OVC012=

USA.gov is the U.S. government's official web portal to all federal, state and local government web resources and services.